createdAt,value
2023-03-19T00:00:17.816Z,100.00
2023-03-19T00:04:21.345Z,100.00
2023-03-19T00:08:24.352Z,100.00
2023-03-19T00:12:28.676Z,100.00
2023-03-19T00:16:32.536Z,100.00
2023-03-19T00:20:37.278Z,100.00
2023-03-19T00:24:40.269Z,100.00
2023-03-19T00:28:44.892Z,100.00
2023-03-19T00:32:48.250Z,100.00
2023-03-19T00:36:51.972Z,100.00
2023-03-19T00:40:55.319Z,100.00
2023-03-19T00:44:59.735Z,100.00
2023-03-19T00:49:02.821Z,100.00
2023-03-19T00:53:06.194Z,100.00
2023-03-19T00:57:09.521Z,100.00
2023-03-19T01:01:16.420Z,100.00
2023-03-19T01:05:20.469Z,100.00
2023-03-19T01:09:23.438Z,100.00
2023-03-19T01:13:26.362Z,100.00
2023-03-19T01:17:30.812Z,100.00
2023-03-19T01:21:35.548Z,100.00
2023-03-19T01:25:40.557Z,100.00
2023-03-19T01:29:44.189Z,100.00
2023-03-19T01:33:54.940Z,100.00
2023-03-19T01:38:17.914Z,100.00
2023-03-19T01:42:23.624Z,100.00
2023-03-19T01:46:50.909Z,100.00
2023-03-19T01:51:39.493Z,100.00
2023-03-19T01:55:50.023Z,100.00
2023-03-19T02:00:08.084Z,100.00
2023-03-19T02:04:20.623Z,100.00
2023-03-19T02:08:25.771Z,100.00
2023-03-19T02:12:29.190Z,100.00
2023-03-19T02:16:32.350Z,100.00
2023-03-19T02:20:43.005Z,100.00
2023-03-19T02:24:54.491Z,100.00
2023-03-19T02:29:00.165Z,100.00
2023-03-19T02:33:12.913Z,100.00
2023-03-19T02:37:19.600Z,100.00
2023-03-19T02:41:22.964Z,100.00
2023-03-19T02:45:30.577Z,100.00
2023-03-19T02:49:33.405Z,100.00
2023-03-19T02:53:36.846Z,100.00
2023-03-19T02:57:40.199Z,100.00
2023-03-19T03:01:44.513Z,100.00
2023-03-19T03:05:47.718Z,100.00
2023-03-19T03:09:51.168Z,100.00
2023-03-19T03:13:54.153Z,100.00
2023-03-19T03:17:58.597Z,100.00
2023-03-19T03:22:01.767Z,100.00
2023-03-19T03:26:06.724Z,100.00
2023-03-19T03:30:11.871Z,100.00
2023-03-19T03:34:16.257Z,100.00
2023-03-19T03:38:19.240Z,100.00
2023-03-19T03:42:22.885Z,100.00
2023-03-19T03:46:26.476Z,100.00
2023-03-19T03:50:30.847Z,100.00
2023-03-19T03:54:39.205Z,100.00
2023-03-19T03:58:42.261Z,100.00
2023-03-19T04:02:45.862Z,100.00
2023-03-19T04:06:53.159Z,100.00
2023-03-19T04:11:08.978Z,100.00
2023-03-19T04:15:13.632Z,100.00
2023-03-19T04:19:19.206Z,100.00
2023-03-19T04:23:23.851Z,100.00
2023-03-19T04:27:27.015Z,100.00
2023-03-19T04:31:30.494Z,100.00
2023-03-19T04:35:35.144Z,100.00
2023-03-19T04:39:39.719Z,100.00
2023-03-19T04:43:42.881Z,100.00
2023-03-19T04:47:46.672Z,100.00
2023-03-19T04:51:50.036Z,100.00
2023-03-19T04:55:54.366Z,100.00
2023-03-19T04:59:57.178Z,100.00
2023-03-19T05:04:00.636Z,100.00
2023-03-19T05:08:04.430Z,100.00
2023-03-19T05:12:09.773Z,100.00
2023-03-19T05:16:18.782Z,100.00
2023-03-19T05:20:21.749Z,100.00
2023-03-19T05:24:30.820Z,100.00
2023-03-19T05:28:37.433Z,100.00
2023-03-19T05:32:41.025Z,100.00
2023-03-19T05:36:50.133Z,100.00
2023-03-19T05:40:55.153Z,100.00
2023-03-19T05:45:06.789Z,100.00
2023-03-19T05:49:22.100Z,100.00
2023-03-19T05:53:25.143Z,100.00
2023-03-19T05:57:54.088Z,100.00
2023-03-19T06:02:02.704Z,100.00
2023-03-19T06:06:08.562Z,100.00
2023-03-19T06:10:17.582Z,100.00
2023-03-19T06:14:24.501Z,100.00
2023-03-19T06:18:49.517Z,100.00
2023-03-19T06:22:52.998Z,100.00
2023-03-19T06:26:58.143Z,100.00
2023-03-19T06:31:02.079Z,100.00
2023-03-19T06:35:29.464Z,100.00
2023-03-19T06:39:33.090Z,100.00
2023-03-19T06:43:37.191Z,100.00
2023-03-19T06:47:41.963Z,100.00
2023-03-19T06:51:46.784Z,100.00
2023-03-19T06:55:49.790Z,100.00
2023-03-19T06:59:52.781Z,100.00
2023-03-19T07:03:57.273Z,100.00
2023-03-19T07:08:01.914Z,100.00
2023-03-19T07:12:05.609Z,100.00
2023-03-19T07:16:09.959Z,100.00
2023-03-19T07:20:14.174Z,100.00
2023-03-19T07:24:18.287Z,100.00
2023-03-19T07:28:21.812Z,100.00
2023-03-19T07:32:24.953Z,100.00
2023-03-19T07:36:28.117Z,100.00
2023-03-19T07:40:32.806Z,100.00
2023-03-19T07:44:35.966Z,100.00
2023-03-19T07:48:38.838Z,100.00
2023-03-19T07:52:41.898Z,100.00
2023-03-19T07:56:46.197Z,100.00
2023-03-19T08:00:49.145Z,100.00
2023-03-19T08:04:54.448Z,100.00
2023-03-19T08:08:57.581Z,100.00
2023-03-19T08:13:01.955Z,100.00
2023-03-19T08:17:05.036Z,100.00
2023-03-19T08:21:08.342Z,100.00
2023-03-19T08:25:12.133Z,100.00
2023-03-19T08:29:18.890Z,100.00
2023-03-19T08:33:22.366Z,100.00
2023-03-19T08:37:25.283Z,100.00
2023-03-19T08:41:28.265Z,100.00
2023-03-19T08:45:32.684Z,100.00
2023-03-19T08:49:35.952Z,100.00
2023-03-19T08:53:39.924Z,100.00
2023-03-19T08:57:43.106Z,100.00
2023-03-19T09:01:52.054Z,100.00
2023-03-19T09:05:54.838Z,100.00
2023-03-19T09:09:57.898Z,100.00
2023-03-19T09:14:00.815Z,100.00
2023-03-19T09:18:05.636Z,100.00
2023-03-19T09:22:08.758Z,100.00
2023-03-19T09:26:11.756Z,100.00
2023-03-19T09:30:15.247Z,100.00
2023-03-19T09:34:19.708Z,100.00
2023-03-19T09:38:23.178Z,100.00
2023-03-19T09:42:46.121Z,100.00
2023-03-19T09:46:55.684Z,100.00
2023-03-19T09:51:02.857Z,100.00
2023-03-19T09:55:15.530Z,100.00
2023-03-19T09:59:18.421Z,100.00
2023-03-19T10:03:41.228Z,100.00
2023-03-19T10:07:59.250Z,100.00
2023-03-19T10:12:21.433Z,100.00
2023-03-19T10:16:28.087Z,100.00
2023-03-19T10:20:37.755Z,100.00
2023-03-19T10:24:44.405Z,98.66
2023-03-19T10:28:57.447Z,96.86
2023-03-19T10:33:09.164Z,94.51
2023-03-19T10:37:16.692Z,96.73
2023-03-19T10:41:34.129Z,92.59
2023-03-19T10:45:39.313Z,89.89
2023-03-19T10:49:43.901Z,87.28
2023-03-19T10:53:46.939Z,87.81
2023-03-19T10:57:57.258Z,87.32
2023-03-19T11:02:03.607Z,86.25
2023-03-19T11:06:16.024Z,86.95
2023-03-19T11:10:21.689Z,84.79
2023-03-19T11:14:33.832Z,85.21
2023-03-19T11:18:39.852Z,86.42
2023-03-19T11:22:43.382Z,86.67
2023-03-19T11:26:55.977Z,85.90
2023-03-19T11:31:08.422Z,86.07
2023-03-19T11:35:16.417Z,82.25
2023-03-19T11:39:28.757Z,77.93
2023-03-19T11:44:00.580Z,76.02
2023-03-19T11:52:39.589Z,72.61
2023-03-19T11:56:47.124Z,73.95
2023-03-19T12:00:52.369Z,69.82
2023-03-19T12:05:21.081Z,64.86
2023-03-19T12:09:34.411Z,67.39
2023-03-19T12:13:53.217Z,63.24
2023-03-19T12:18:05.761Z,62.31
2023-03-19T12:22:19.810Z,64.11
2023-03-19T12:26:34.436Z,64.54
2023-03-19T12:30:42.666Z,63.27
2023-03-19T12:34:51.113Z,60.42
2023-03-19T12:38:59.067Z,59.23
2023-03-19T12:43:15.081Z,59.41
2023-03-19T12:47:22.484Z,58.90
2023-03-19T12:51:29.779Z,58.67
2023-03-19T12:55:42.919Z,56.71
2023-03-19T12:59:54.229Z,56.26
2023-03-19T13:04:03.292Z,58.31
2023-03-19T13:08:13.913Z,56.56
2023-03-19T13:12:23.735Z,58.40
2023-03-19T13:16:39.701Z,59.51
2023-03-19T13:20:58.512Z,58.19
2023-03-19T13:25:02.643Z,58.85
2023-03-19T13:29:14.604Z,58.31
2023-03-19T13:33:23.094Z,57.77
2023-03-19T13:37:27.787Z,56.18
2023-03-19T13:41:49.701Z,55.09
2023-03-19T13:45:54.078Z,53.96
2023-03-19T13:50:21.498Z,54.61
2023-03-19T13:54:34.646Z,54.99
2023-03-19T13:58:52.034Z,53.72
2023-03-19T14:02:55.164Z,53.79
2023-03-19T14:07:10.509Z,52.35
2023-03-19T14:11:24.576Z,52.47
2023-03-19T14:15:30.599Z,52.45
2023-03-19T14:19:41.905Z,54.96
2023-03-19T14:23:54.980Z,55.43
2023-03-19T14:28:02.208Z,57.08
2023-03-19T14:32:10.538Z,57.99
2023-03-19T14:36:18.593Z,58.95
2023-03-19T14:40:25.415Z,58.95
2023-03-19T14:44:46.376Z,61.36
2023-03-19T14:49:28.923Z,62.30
2023-03-19T14:53:39.229Z,63.48
2023-03-19T14:57:43.790Z,65.30
2023-03-19T15:01:53.469Z,64.29
2023-03-19T15:06:00.276Z,63.49
2023-03-19T15:10:06.527Z,64.27
2023-03-19T15:14:37.303Z,65.08
2023-03-19T15:18:40.701Z,65.18
2023-03-19T15:22:44.364Z,65.73
2023-03-19T15:26:49.026Z,66.78
2023-03-19T15:31:20.292Z,67.67
2023-03-19T15:35:32.027Z,68.79
2023-03-19T15:39:38.070Z,70.90
2023-03-19T15:43:43.438Z,72.19
2023-03-19T15:47:51.198Z,73.54
2023-03-19T15:51:58.461Z,75.44
2023-03-19T15:56:03.895Z,76.96
2023-03-19T16:00:10.498Z,77.95
2023-03-19T16:04:25.513Z,81.68
2023-03-19T16:08:29.878Z,86.57
2023-03-19T16:12:39.855Z,88.55
2023-03-19T16:16:43.347Z,90.29
2023-03-19T16:21:11.393Z,92.29
2023-03-19T16:25:31.874Z,93.44
2023-03-19T16:29:39.385Z,94.36
2023-03-19T16:33:43.196Z,94.58
2023-03-19T16:37:48.813Z,94.91
2023-03-19T16:42:17.409Z,96.08
2023-03-19T16:46:28.944Z,96.77
2023-03-19T16:50:34.890Z,96.87
2023-03-19T16:54:39.341Z,96.70
2023-03-19T16:58:44.497Z,96.82
2023-03-19T17:02:47.586Z,97.04
2023-03-19T17:06:51.445Z,98.36
2023-03-19T17:10:56.738Z,98.58
2023-03-19T17:15:17.704Z,99.42
2023-03-19T17:19:36.059Z,100.00
2023-03-19T17:23:39.241Z,100.00
2023-03-19T17:27:43.476Z,100.00
2023-03-19T17:31:46.697Z,100.00
2023-03-19T17:35:50.081Z,100.00
2023-03-19T17:39:53.008Z,100.00
2023-03-19T17:43:57.453Z,100.00
2023-03-19T17:48:00.619Z,100.00
2023-03-19T17:52:04.950Z,100.00
2023-03-19T17:56:16.548Z,100.00
2023-03-19T18:00:23.848Z,100.00
2023-03-19T18:04:27.052Z,100.00
2023-03-19T18:08:30.563Z,100.00
2023-03-19T18:12:34.527Z,100.00
2023-03-19T18:16:39.001Z,100.00
2023-03-19T18:20:43.031Z,100.00
2023-03-19T18:24:46.589Z,100.00
2023-03-19T18:28:49.627Z,100.00
2023-03-19T18:32:59.345Z,100.00
2023-03-19T18:37:03.042Z,100.00
2023-03-19T18:41:06.247Z,100.00
2023-03-19T18:45:37.597Z,100.00
2023-03-19T18:49:42.305Z,100.00
2023-03-19T18:53:45.996Z,100.00
2023-03-19T18:57:54.182Z,100.00
2023-03-19T19:02:01.717Z,100.00
2023-03-19T19:06:07.028Z,100.00
2023-03-19T19:10:11.228Z,100.00
2023-03-19T19:14:21.814Z,100.00
2023-03-19T19:18:28.243Z,100.00
2023-03-19T19:22:34.072Z,100.00
2023-03-19T19:26:37.483Z,100.00
2023-03-19T19:30:41.556Z,100.00
2023-03-19T19:34:44.475Z,100.00
2023-03-19T19:38:51.878Z,100.00
2023-03-19T19:42:55.239Z,100.00
2023-03-19T19:47:00.893Z,100.00
2023-03-19T19:51:04.730Z,100.00
2023-03-19T19:55:10.729Z,100.00
2023-03-19T19:59:16.056Z,100.00
2023-03-19T20:03:24.277Z,100.00
2023-03-19T20:07:28.273Z,100.00
2023-03-19T20:11:32.754Z,100.00
2023-03-19T20:15:36.862Z,100.00
2023-03-19T20:19:40.561Z,100.00
2023-03-19T20:23:45.442Z,100.00
2023-03-19T20:27:54.310Z,100.00
2023-03-19T20:31:58.380Z,100.00
2023-03-19T20:36:03.223Z,100.00
2023-03-19T20:40:07.687Z,100.00
2023-03-19T20:44:21.541Z,100.00
2023-03-19T20:48:27.264Z,100.00
2023-03-19T20:52:32.078Z,100.00
2023-03-19T20:56:38.111Z,100.00
2023-03-19T21:00:43.070Z,100.00
2023-03-19T21:04:47.534Z,100.00
2023-03-19T21:08:53.374Z,100.00
2023-03-19T21:12:56.721Z,100.00
2023-03-19T21:17:01.961Z,100.00
2023-03-19T21:21:05.274Z,100.00
2023-03-19T21:25:19.382Z,100.00
2023-03-19T21:29:29.805Z,100.00
2023-03-19T21:33:36.141Z,100.00
2023-03-19T21:37:40.488Z,100.00
2023-03-19T21:41:44.762Z,100.00
2023-03-19T21:45:50.197Z,100.00
2023-03-19T21:49:54.905Z,100.00
2023-03-19T21:53:58.495Z,100.00
2023-03-19T21:58:01.579Z,100.00
2023-03-19T22:02:04.586Z,100.00
2023-03-19T22:06:09.728Z,100.00
2023-03-19T22:10:13.751Z,100.00
2023-03-19T22:14:20.648Z,100.00
2023-03-19T22:18:23.829Z,100.00
2023-03-19T22:22:28.247Z,100.00
2023-03-19T22:26:33.681Z,100.00
2023-03-19T22:30:38.873Z,100.00
2023-03-19T22:34:41.776Z,100.00
2023-03-19T22:38:48.660Z,100.00
2023-03-19T22:42:51.974Z,100.00
2023-03-19T22:46:56.456Z,100.00
2023-03-19T22:50:59.555Z,100.00
2023-03-19T22:55:05.566Z,100.00
2023-03-19T22:59:10.199Z,100.00
2023-03-19T23:03:18.844Z,100.00
2023-03-19T23:07:21.891Z,100.00
2023-03-19T23:11:27.204Z,100.00
2023-03-19T23:15:31.854Z,100.00
2023-03-19T23:19:36.602Z,100.00
2023-03-19T23:23:39.405Z,100.00
2023-03-19T23:27:46.045Z,100.00
2023-03-19T23:31:49.238Z,100.00
2023-03-19T23:35:54.012Z,100.00
2023-03-19T23:39:58.771Z,100.00
2023-03-19T23:44:08.639Z,100.00
2023-03-19T23:48:15.916Z,100.00
2023-03-19T23:52:18.871Z,100.00
2023-03-19T23:56:24.513Z,100.00
